sensor_id;sensor_type;location;lat;lon;timestamp;pressure;altitude;pressure_sealevel;temperature;humidity
26083;BME280;13848;49.018;12.078;2022-07-12T00:01:18;98259.97;;;16.84;64.86
26083;BME280;13848;49.018;12.078;2022-07-12T00:03:44;98310.81;;;17.28;64.15
26083;BME280;13848;49.018;12.078;2022-07-12T00:06:12;98314.28;;;17.24;64.34
26083;BME280;13848;49.018;12.078;2022-07-12T00:08:38;98311.94;;;17.33;63.82
26083;BME280;13848;49.018;12.078;2022-07-12T00:11:04;98310.47;;;17.25;64.11
26083;BME280;13848;49.018;12.078;2022-07-12T00:13:30;98309.50;;;17.14;64.64
26083;BME280;13848;49.018;12.078;2022-07-12T00:15:57;98317.66;;;17.14;64.71
26083;BME280;13848;49.018;12.078;2022-07-12T00:18:23;98309.00;;;17.17;64.33
26083;BME280;13848;49.018;12.078;2022-07-12T00:20:49;98303.88;;;17.04;64.82
26083;BME280;13848;49.018;12.078;2022-07-12T00:23:17;98308.84;;;17.07;64.95
26083;BME280;13848;49.018;12.078;2022-07-12T00:25:43;98304.78;;;17.10;64.66
26083;BME280;13848;49.018;12.078;2022-07-12T00:28:09;98296.94;;;17.13;64.88
26083;BME280;13848;49.018;12.078;2022-07-12T00:30:35;98313.13;;;17.20;64.44
26083;BME280;13848;49.018;12.078;2022-07-12T00:33:01;98299.09;;;16.94;65.19
26083;BME280;13848;49.018;12.078;2022-07-12T00:35:27;98314.13;;;16.97;65.50
26083;BME280;13848;49.018;12.078;2022-07-12T00:37:53;98322.72;;;16.89;66.10
26083;BME280;13848;49.018;12.078;2022-07-12T00:40:20;98320.91;;;16.94;65.66
26083;BME280;13848;49.018;12.078;2022-07-12T00:42:46;98315.34;;;16.89;65.98
26083;BME280;13848;49.018;12.078;2022-07-12T00:45:12;98316.44;;;17.05;65.00
26083;BME280;13848;49.018;12.078;2022-07-12T00:47:41;98308.66;;;16.97;65.42
26083;BME280;13848;49.018;12.078;2022-07-12T00:50:10;98313.28;;;16.80;66.52
26083;BME280;13848;49.018;12.078;2022-07-12T00:52:37;98308.13;;;16.66;67.19
26083;BME280;13848;49.018;12.078;2022-07-12T00:55:04;98311.94;;;16.65;67.30
26083;BME280;13848;49.018;12.078;2022-07-12T00:57:32;98306.13;;;16.62;67.54
26083;BME280;13848;49.018;12.078;2022-07-12T00:59:58;98306.59;;;16.70;67.02
26083;BME280;13848;49.018;12.078;2022-07-12T01:02:25;98285.69;;;16.59;66.54
26083;BME280;13848;49.018;12.078;2022-07-12T01:04:53;98312.41;;;16.62;67.44
26083;BME280;13848;49.018;12.078;2022-07-12T01:07:20;98312.16;;;16.47;68.22
26083;BME280;13848;49.018;12.078;2022-07-12T01:09:46;98305.53;;;16.43;68.17
26083;BME280;13848;49.018;12.078;2022-07-12T01:12:13;98308.25;;;16.43;68.21
26083;BME280;13848;49.018;12.078;2022-07-12T01:14:40;98316.41;;;16.43;68.09
26083;BME280;13848;49.018;12.078;2022-07-12T01:17:07;98312.38;;;16.45;68.01
26083;BME280;13848;49.018;12.078;2022-07-12T01:19:34;98308.44;;;16.53;67.77
26083;BME280;13848;49.018;12.078;2022-07-12T01:22:02;98316.69;;;16.58;67.71
26083;BME280;13848;49.018;12.078;2022-07-12T01:24:30;98308.72;;;16.40;68.54
26083;BME280;13848;49.018;12.078;2022-07-12T01:26:57;98305.63;;;16.48;68.23
26083;BME280;13848;49.018;12.078;2022-07-12T01:29:23;98307.03;;;16.50;67.85
26083;BME280;13848;49.018;12.078;2022-07-12T01:31:49;98303.47;;;16.50;67.87
26083;BME280;13848;49.018;12.078;2022-07-12T01:34:16;98305.91;;;16.35;68.77
26083;BME280;13848;49.018;12.078;2022-07-12T01:36:42;98311.34;;;16.35;68.99
26083;BME280;13848;49.018;12.078;2022-07-12T01:39:09;98310.88;;;16.38;68.74
26083;BME280;13848;49.018;12.078;2022-07-12T01:41:37;98309.44;;;16.47;68.46
26083;BME280;13848;49.018;12.078;2022-07-12T01:44:03;98305.78;;;16.41;68.75
26083;BME280;13848;49.018;12.078;2022-07-12T01:46:29;98307.19;;;16.44;68.72
26083;BME280;13848;49.018;12.078;2022-07-12T01:48:56;98294.19;;;16.34;68.62
26083;BME280;13848;49.018;12.078;2022-07-12T01:51:22;98297.69;;;16.46;68.56
26083;BME280;13848;49.018;12.078;2022-07-12T01:53:48;98303.81;;;16.54;68.26
26083;BME280;13848;49.018;12.078;2022-07-12T01:56:14;98305.78;;;16.58;68.23
26083;BME280;13848;49.018;12.078;2022-07-12T01:58:42;98296.84;;;16.46;68.52
26083;BME280;13848;49.018;12.078;2022-07-12T02:01:09;98298.03;;;16.50;68.73
26083;BME280;13848;49.018;12.078;2022-07-12T02:03:35;98302.81;;;16.43;68.84
26083;BME280;13848;49.018;12.078;2022-07-12T02:06:01;98284.94;;;16.47;68.52
26083;BME280;13848;49.018;12.078;2022-07-12T02:08:27;98302.81;;;16.43;69.31
26083;BME280;13848;49.018;12.078;2022-07-12T02:10:53;98301.31;;;16.52;68.75
26083;BME280;13848;49.018;12.078;2022-07-12T02:13:19;98298.13;;;16.55;68.69
26083;BME280;13848;49.018;12.078;2022-07-12T02:15:46;98296.84;;;16.46;68.91
26083;BME280;13848;49.018;12.078;2022-07-12T02:18:12;98301.31;;;16.52;68.79
26083;BME280;13848;49.018;12.078;2022-07-12T02:20:38;98296.22;;;16.56;68.81
26083;BME280;13848;49.018;12.078;2022-07-12T02:23:04;98298.88;;;16.67;68.09
26083;BME280;13848;49.018;12.078;2022-07-12T02:25:30;98301.50;;;16.62;68.33
26083;BME280;13848;49.018;12.078;2022-07-12T02:27:56;98296.56;;;16.59;68.37
26083;BME280;13848;49.018;12.078;2022-07-12T02:30:22;98300.94;;;16.60;68.31
26083;BME280;13848;49.018;12.078;2022-07-12T02:32:49;98297.22;;;16.49;68.81
26083;BME280;13848;49.018;12.078;2022-07-12T02:35:15;98295.81;;;16.47;68.95
26083;BME280;13848;49.018;12.078;2022-07-12T02:37:41;98297.25;;;16.38;69.49
26083;BME280;13848;49.018;12.078;2022-07-12T02:40:09;98301.91;;;16.54;68.64
26083;BME280;13848;49.018;12.078;2022-07-12T02:42:35;98300.84;;;16.55;68.45
26083;BME280;13848;49.018;12.078;2022-07-12T02:45:01;98309.16;;;16.48;69.00
26083;BME280;13848;49.018;12.078;2022-07-12T02:47:26;98308.34;;;16.48;68.69
26083;BME280;13848;49.018;12.078;2022-07-12T02:49:54;98309.66;;;16.45;68.78
26083;BME280;13848;49.018;12.078;2022-07-12T02:52:20;98311.94;;;16.37;69.13
26083;BME280;13848;49.018;12.078;2022-07-12T02:54:45;98303.97;;;16.47;68.37
26083;BME280;13848;49.018;12.078;2022-07-12T02:57:12;98304.34;;;16.39;69.08
26083;BME280;13848;49.018;12.078;2022-07-12T02:59:38;98310.06;;;16.37;69.06
26083;BME280;13848;49.018;12.078;2022-07-12T03:02:04;98314.94;;;16.35;68.98
26083;BME280;13848;49.018;12.078;2022-07-12T03:04:30;98312.53;;;16.39;68.56
26083;BME280;13848;49.018;12.078;2022-07-12T03:06:57;98314.16;;;16.40;68.35
26083;BME280;13848;49.018;12.078;2022-07-12T03:09:23;98316.31;;;16.38;68.41
26083;BME280;13848;49.018;12.078;2022-07-12T03:11:49;98315.97;;;16.34;68.82
26083;BME280;13848;49.018;12.078;2022-07-12T03:14:15;98317.28;;;16.32;68.84
26083;BME280;13848;49.018;12.078;2022-07-12T03:16:41;98312.16;;;16.18;69.15
26083;BME280;13848;49.018;12.078;2022-07-12T03:19:07;98317.22;;;16.15;69.20
26083;BME280;13848;49.018;12.078;2022-07-12T03:21:33;98313.78;;;16.19;69.46
26083;BME280;13848;49.018;12.078;2022-07-12T03:24:00;98316.09;;;15.99;69.77
26083;BME280;13848;49.018;12.078;2022-07-12T03:26:26;98314.31;;;16.05;69.46
26083;BME280;13848;49.018;12.078;2022-07-12T03:28:52;98320.75;;;15.87;70.10
26083;BME280;13848;49.018;12.078;2022-07-12T03:31:18;98323.94;;;15.95;69.65
26083;BME280;13848;49.018;12.078;2022-07-12T03:33:44;98330.31;;;16.01;69.15
26083;BME280;13848;49.018;12.078;2022-07-12T03:36:10;98335.97;;;16.00;69.36
26083;BME280;13848;49.018;12.078;2022-07-12T03:38:35;98342.59;;;15.92;69.50
26083;BME280;13848;49.018;12.078;2022-07-12T03:41:03;98334.56;;;15.97;69.48
26083;BME280;13848;49.018;12.078;2022-07-12T03:43:29;98333.91;;;15.78;70.13
26083;BME280;13848;49.018;12.078;2022-07-12T03:45:55;98344.03;;;15.83;69.82
26083;BME280;13848;49.018;12.078;2022-07-12T03:48:21;98286.88;;;15.42;69.73
26083;BME280;13848;49.018;12.078;2022-07-12T03:50:47;98341.31;;;15.83;69.52
26083;BME280;13848;49.018;12.078;2022-07-12T03:53:13;98339.09;;;15.80;69.71
26083;BME280;13848;49.018;12.078;2022-07-12T03:55:38;98337.31;;;15.74;69.61
26083;BME280;13848;49.018;12.078;2022-07-12T03:58:06;98352.09;;;15.78;69.59
26083;BME280;13848;49.018;12.078;2022-07-12T04:00:32;98338.41;;;15.73;69.76
26083;BME280;13848;49.018;12.078;2022-07-12T04:02:58;98340.28;;;15.72;69.73
26083;BME280;13848;49.018;12.078;2022-07-12T04:05:24;98338.16;;;15.74;69.61
26083;BME280;13848;49.018;12.078;2022-07-12T04:07:49;98336.94;;;15.58;70.37
26083;BME280;13848;49.018;12.078;2022-07-12T04:10:15;98336.72;;;15.60;69.88
26083;BME280;13848;49.018;12.078;2022-07-12T04:12:41;98338.28;;;15.67;69.60
26083;BME280;13848;49.018;12.078;2022-07-12T04:15:09;98345.72;;;15.72;69.37
26083;BME280;13848;49.018;12.078;2022-07-12T04:17:35;98343.34;;;15.64;69.82
26083;BME280;13848;49.018;12.078;2022-07-12T04:20:01;98349.63;;;15.64;69.65
26083;BME280;13848;49.018;12.078;2022-07-12T04:22:27;98346.91;;;15.64;69.67
26083;BME280;13848;49.018;12.078;2022-07-12T04:24:53;98354.81;;;15.78;69.19
26083;BME280;13848;49.018;12.078;2022-07-12T04:27:18;98343.69;;;15.91;68.84
26083;BME280;13848;49.018;12.078;2022-07-12T04:29:45;98346.97;;;15.93;68.55
26083;BME280;13848;49.018;12.078;2022-07-12T04:32:12;98346.50;;;15.96;68.56
26083;BME280;13848;49.018;12.078;2022-07-12T04:34:38;98343.91;;;16.01;68.36
26083;BME280;13848;49.018;12.078;2022-07-12T04:37:04;98353.53;;;16.20;67.59
26083;BME280;13848;49.018;12.078;2022-07-12T04:39:30;98351.66;;;16.09;68.02
26083;BME280;13848;49.018;12.078;2022-07-12T04:41:56;98329.59;;;15.94;68.51
26083;BME280;13848;49.018;12.078;2022-07-12T04:44:22;98354.16;;;16.11;68.32
26083;BME280;13848;49.018;12.078;2022-07-12T04:46:48;98356.91;;;15.99;68.63
26083;BME280;13848;49.018;12.078;2022-07-12T04:49:15;98358.78;;;15.99;68.35
26083;BME280;13848;49.018;12.078;2022-07-12T04:51:41;98347.31;;;16.08;68.04
26083;BME280;13848;49.018;12.078;2022-07-12T04:54:07;98351.56;;;16.04;68.11
26083;BME280;13848;49.018;12.078;2022-07-12T04:56:33;98353.00;;;16.07;68.15
26083;BME280;13848;49.018;12.078;2022-07-12T04:58:59;98361.31;;;16.29;67.59
26083;BME280;13848;49.018;12.078;2022-07-12T05:01:25;98368.03;;;16.38;67.01
26083;BME280;13848;49.018;12.078;2022-07-12T05:03:51;98370.13;;;16.47;66.91
26083;BME280;13848;49.018;12.078;2022-07-12T05:06:18;98373.31;;;16.44;67.00
26083;BME280;13848;49.018;12.078;2022-07-12T05:08:44;98361.22;;;16.52;66.97
26083;BME280;13848;49.018;12.078;2022-07-12T05:11:10;98369.69;;;16.67;66.64
26083;BME280;13848;49.018;12.078;2022-07-12T05:13:36;98374.28;;;16.67;66.44
26083;BME280;13848;49.018;12.078;2022-07-12T05:16:02;98378.06;;;16.78;66.22
26083;BME280;13848;49.018;12.078;2022-07-12T05:18:28;98375.81;;;16.74;66.00
26083;BME280;13848;49.018;12.078;2022-07-12T05:20:54;98381.97;;;16.82;65.54
26083;BME280;13848;49.018;12.078;2022-07-12T05:23:21;98369.75;;;16.84;65.32
26083;BME280;13848;49.018;12.078;2022-07-12T05:25:47;98384.91;;;16.80;65.90
26083;BME280;13848;49.018;12.078;2022-07-12T05:28:13;98384.75;;;16.87;65.57
26083;BME280;13848;49.018;12.078;2022-07-12T05:30:39;98375.03;;;16.91;65.28
26083;BME280;13848;49.018;12.078;2022-07-12T05:33:05;98388.09;;;16.89;65.65
26083;BME280;13848;49.018;12.078;2022-07-12T05:35:31;98391.06;;;17.04;65.10
26083;BME280;13848;49.018;12.078;2022-07-12T05:37:57;98387.75;;;17.02;65.40
26083;BME280;13848;49.018;12.078;2022-07-12T05:40:24;98392.78;;;17.10;65.26
26083;BME280;13848;49.018;12.078;2022-07-12T05:42:50;98391.22;;;17.14;64.97
26083;BME280;13848;49.018;12.078;2022-07-12T05:45:16;98388.59;;;17.53;64.01
26083;BME280;13848;49.018;12.078;2022-07-12T05:47:42;98395.53;;;17.61;63.69
26083;BME280;13848;49.018;12.078;2022-07-12T05:50:08;98393.97;;;17.65;62.83
26083;BME280;13848;49.018;12.078;2022-07-12T05:52:34;98388.94;;;17.40;63.06
26083;BME280;13848;49.018;12.078;2022-07-12T05:55:00;98397.44;;;17.60;62.17
26083;BME280;13848;49.018;12.078;2022-07-12T05:57:28;98402.63;;;17.45;62.96
26083;BME280;13848;49.018;12.078;2022-07-12T05:59:54;98401.97;;;17.71;62.37
26083;BME280;13848;49.018;12.078;2022-07-12T06:02:20;98399.00;;;17.73;61.92
26083;BME280;13848;49.018;12.078;2022-07-12T06:04:45;98399.50;;;17.87;62.30
26083;BME280;13848;49.018;12.078;2022-07-12T06:07:11;98392.03;;;17.99;61.46
26083;BME280;13848;49.018;12.078;2022-07-12T06:09:37;98404.25;;;17.96;61.30
26083;BME280;13848;49.018;12.078;2022-07-12T06:12:04;98404.13;;;18.08;61.23
26083;BME280;13848;49.018;12.078;2022-07-12T06:14:32;98409.06;;;17.89;61.36
26083;BME280;13848;49.018;12.078;2022-07-12T06:16:57;98403.56;;;18.06;60.98
26083;BME280;13848;49.018;12.078;2022-07-12T06:19:23;98409.66;;;18.13;60.83
26083;BME280;13848;49.018;12.078;2022-07-12T06:21:49;98410.44;;;18.30;60.48
26083;BME280;13848;49.018;12.078;2022-07-12T06:24:15;98406.88;;;18.30;60.53
26083;BME280;13848;49.018;12.078;2022-07-12T06:26:41;98411.19;;;18.48;60.54
26083;BME280;13848;49.018;12.078;2022-07-12T06:29:07;98408.53;;;18.53;60.50
26083;BME280;13848;49.018;12.078;2022-07-12T06:31:35;98413.50;;;18.56;59.97
26083;BME280;13848;49.018;12.078;2022-07-12T06:34:01;98414.22;;;18.68;59.85
26083;BME280;13848;49.018;12.078;2022-07-12T06:36:27;98408.81;;;18.73;59.50
26083;BME280;13848;49.018;12.078;2022-07-12T06:38:53;98412.03;;;18.70;59.50
26083;BME280;13848;49.018;12.078;2022-07-12T06:41:19;98414.13;;;18.63;59.00
26083;BME280;13848;49.018;12.078;2022-07-12T06:43:45;98404.38;;;18.67;58.70
26083;BME280;13848;49.018;12.078;2022-07-12T06:46:11;98410.03;;;18.87;58.66
26083;BME280;13848;49.018;12.078;2022-07-12T06:48:38;98410.50;;;18.79;58.87
26083;BME280;13848;49.018;12.078;2022-07-12T06:51:04;98406.41;;;18.82;58.48
26083;BME280;13848;49.018;12.078;2022-07-12T06:53:30;98411.19;;;18.92;58.04
26083;BME280;13848;49.018;12.078;2022-07-12T06:55:56;98405.38;;;19.15;57.54
26083;BME280;13848;49.018;12.078;2022-07-12T06:58:21;98406.44;;;19.09;57.68
26083;BME280;13848;49.018;12.078;2022-07-12T07:00:47;98412.59;;;19.26;57.27
26083;BME280;13848;49.018;12.078;2022-07-12T07:03:13;98411.94;;;19.46;56.95
26083;BME280;13848;49.018;12.078;2022-07-12T07:05:41;98408.91;;;19.43;56.24
26083;BME280;13848;49.018;12.078;2022-07-12T07:08:06;98404.91;;;19.55;56.06
26083;BME280;13848;49.018;12.078;2022-07-12T07:10:32;98409.69;;;19.70;55.58
26083;BME280;13848;49.018;12.078;2022-07-12T07:12:58;98413.03;;;19.82;55.56
26083;BME280;13848;49.018;12.078;2022-07-12T07:15:24;98409.03;;;19.95;54.26
26083;BME280;13848;49.018;12.078;2022-07-12T07:17:50;98408.78;;;19.97;54.46
26083;BME280;13848;49.018;12.078;2022-07-12T07:20:16;98404.16;;;20.02;53.84
26083;BME280;13848;49.018;12.078;2022-07-12T07:22:43;98413.16;;;19.98;53.83
26083;BME280;13848;49.018;12.078;2022-07-12T07:25:09;98410.75;;;20.06;53.05
26083;BME280;13848;49.018;12.078;2022-07-12T07:27:35;98416.56;;;20.20;51.94
26083;BME280;13848;49.018;12.078;2022-07-12T07:30:02;98411.09;;;20.20;52.07
26083;BME280;13848;49.018;12.078;2022-07-12T07:32:28;98418.22;;;20.26;52.25
26083;BME280;13848;49.018;12.078;2022-07-12T07:34:54;98419.66;;;20.39;51.52
26083;BME280;13848;49.018;12.078;2022-07-12T07:37:20;98415.03;;;20.44;51.91
26083;BME280;13848;49.018;12.078;2022-07-12T07:39:47;98430.44;;;20.56;51.21
26083;BME280;13848;49.018;12.078;2022-07-12T07:42:14;98420.03;;;20.63;50.98
26083;BME280;13848;49.018;12.078;2022-07-12T07:44:39;98420.06;;;20.68;50.95
26083;BME280;13848;49.018;12.078;2022-07-12T07:47:05;98432.75;;;20.89;50.74
26083;BME280;13848;49.018;12.078;2022-07-12T07:49:35;98419.06;;;20.99;48.36
26083;BME280;13848;49.018;12.078;2022-07-12T07:52:01;98420.75;;;21.11;48.30
26083;BME280;13848;49.018;12.078;2022-07-12T07:54:27;98422.38;;;21.17;48.22
26083;BME280;13848;49.018;12.078;2022-07-12T07:56:54;98416.34;;;21.15;47.36
26083;BME280;13848;49.018;12.078;2022-07-12T07:59:20;98422.38;;;21.22;47.09
26083;BME280;13848;49.018;12.078;2022-07-12T08:01:46;98422.38;;;21.22;46.96
26083;BME280;13848;49.018;12.078;2022-07-12T08:04:12;98411.97;;;21.24;44.07
26083;BME280;13848;49.018;12.078;2022-07-12T08:06:39;98417.50;;;21.34;43.51
26083;BME280;13848;49.018;12.078;2022-07-12T08:09:05;98417.47;;;21.55;44.03
26083;BME280;13848;49.018;12.078;2022-07-12T08:11:31;98421.63;;;21.57;43.21
26083;BME280;13848;49.018;12.078;2022-07-12T08:13:58;98422.94;;;21.80;42.38
26083;BME280;13848;49.018;12.078;2022-07-12T08:16:24;98416.38;;;21.76;42.14
26083;BME280;13848;49.018;12.078;2022-07-12T08:18:50;98422.13;;;21.79;41.04
26083;BME280;13848;49.018;12.078;2022-07-12T08:21:16;98428.94;;;22.08;41.94
26083;BME280;13848;49.018;12.078;2022-07-12T08:23:42;98421.25;;;22.15;40.93
26083;BME280;13848;49.018;12.078;2022-07-12T08:26:09;98421.53;;;22.13;40.30
26083;BME280;13848;49.018;12.078;2022-07-12T08:28:34;98397.34;;;22.25;40.93
26083;BME280;13848;49.018;12.078;2022-07-12T08:31:02;98423.94;;;22.40;40.52
26083;BME280;13848;49.018;12.078;2022-07-12T08:33:28;98426.69;;;22.40;40.16
26083;BME280;13848;49.018;12.078;2022-07-12T08:35:54;98423.31;;;22.58;39.73
26083;BME280;13848;49.018;12.078;2022-07-12T08:38:20;98428.22;;;22.67;40.74
26083;BME280;13848;49.018;12.078;2022-07-12T08:40:46;98425.19;;;22.68;40.28
26083;BME280;13848;49.018;12.078;2022-07-12T08:43:12;98423.72;;;22.86;38.49
26083;BME280;13848;49.018;12.078;2022-07-12T08:45:38;98419.06;;;22.87;37.72
26083;BME280;13848;49.018;12.078;2022-07-12T08:48:06;98419.91;;;22.82;38.54
26083;BME280;13848;49.018;12.078;2022-07-12T08:50:32;98422.91;;;22.86;38.86
26083;BME280;13848;49.018;12.078;2022-07-12T08:52:59;98426.56;;;22.71;37.48
26083;BME280;13848;49.018;12.078;2022-07-12T08:55:27;98432.63;;;22.68;37.65
26083;BME280;13848;49.018;12.078;2022-07-12T08:57:56;98423.81;;;22.66;37.95
26083;BME280;13848;49.018;12.078;2022-07-12T09:00:23;98428.16;;;22.77;36.68
26083;BME280;13848;49.018;12.078;2022-07-12T09:02:50;98416.31;;;22.92;37.49
26083;BME280;13848;49.018;12.078;2022-07-12T09:05:20;98409.41;;;22.94;37.84
26083;BME280;13848;49.018;12.078;2022-07-12T09:07:46;98422.00;;;23.00;37.20
26083;BME280;13848;49.018;12.078;2022-07-12T09:10:13;98419.09;;;23.31;37.41
26083;BME280;13848;49.018;12.078;2022-07-12T09:12:40;98419.84;;;23.36;37.53
26083;BME280;13848;49.018;12.078;2022-07-12T09:15:14;98410.13;;;23.49;35.06
26083;BME280;13848;49.018;12.078;2022-07-12T09:17:41;98411.75;;;23.50;35.15
26083;BME280;13848;49.018;12.078;2022-07-12T09:20:11;98419.63;;;23.96;33.76
26083;BME280;13848;49.018;12.078;2022-07-12T09:22:47;98415.03;;;23.86;32.79
26083;BME280;13848;49.018;12.078;2022-07-12T09:25:16;98416.84;;;24.01;34.43
26083;BME280;13848;49.018;12.078;2022-07-12T09:27:47;98415.06;;;24.10;35.58
26083;BME280;13848;49.018;12.078;2022-07-12T09:30:13;98413.84;;;24.22;34.88
26083;BME280;13848;49.018;12.078;2022-07-12T09:32:49;98413.03;;;24.45;34.69
26083;BME280;13848;49.018;12.078;2022-07-12T09:35:15;98417.03;;;24.05;33.78
26083;BME280;13848;49.018;12.078;2022-07-12T09:37:42;98425.56;;;24.08;35.52
26083;BME280;13848;49.018;12.078;2022-07-12T09:40:09;98425.63;;;24.03;37.02
26083;BME280;13848;49.018;12.078;2022-07-12T09:42:36;98420.78;;;23.90;36.53
26083;BME280;13848;49.018;12.078;2022-07-12T09:45:04;98428.66;;;23.73;36.85
26083;BME280;13848;49.018;12.078;2022-07-12T09:47:32;98413.25;;;23.72;38.11
26083;BME280;13848;49.018;12.078;2022-07-12T09:49:58;98427.69;;;23.87;37.01
26083;BME280;13848;49.018;12.078;2022-07-12T09:52:25;98421.75;;;24.04;36.02
26083;BME280;13848;49.018;12.078;2022-07-12T09:54:54;98424.91;;;24.16;36.20
26083;BME280;13848;49.018;12.078;2022-07-12T09:57:22;98430.38;;;24.22;35.61
26083;BME280;13848;49.018;12.078;2022-07-12T09:59:51;98424.66;;;24.18;35.19
26083;BME280;13848;49.018;12.078;2022-07-12T10:02:18;98427.88;;;24.49;36.68
26083;BME280;13848;49.018;12.078;2022-07-12T10:04:46;98423.31;;;24.39;37.20
26083;BME280;13848;49.018;12.078;2022-07-12T10:07:12;98424.00;;;24.50;36.24
26083;BME280;13848;49.018;12.078;2022-07-12T10:09:40;98423.06;;;24.60;33.71
26083;BME280;13848;49.018;12.078;2022-07-12T10:12:08;98425.16;;;24.68;34.41
26083;BME280;13848;49.018;12.078;2022-07-12T10:14:36;98418.63;;;24.83;34.73
26083;BME280;13848;49.018;12.078;2022-07-12T10:17:03;98403.03;;;24.92;34.03
26083;BME280;13848;49.018;12.078;2022-07-12T10:19:30;98413.13;;;25.02;34.41
26083;BME280;13848;49.018;12.078;2022-07-12T10:21:58;98406.78;;;25.39;33.81
26083;BME280;13848;49.018;12.078;2022-07-12T10:24:47;98412.84;;;25.41;33.33
26083;BME280;13848;49.018;12.078;2022-07-12T10:27:33;98402.47;;;25.33;33.38
26083;BME280;13848;49.018;12.078;2022-07-12T10:30:19;98400.78;;;25.18;34.36
26083;BME280;13848;49.018;12.078;2022-07-12T10:32:46;98401.75;;;25.08;33.75
26083;BME280;13848;49.018;12.078;2022-07-12T10:35:15;98407.06;;;24.81;35.74
26083;BME280;13848;49.018;12.078;2022-07-12T10:37:41;98407.97;;;24.76;34.94
26083;BME280;13848;49.018;12.078;2022-07-12T10:40:15;98409.88;;;24.57;36.44
26083;BME280;13848;49.018;12.078;2022-07-12T10:43:12;98406.84;;;24.77;35.68
26083;BME280;13848;49.018;12.078;2022-07-12T10:45:39;98414.38;;;24.72;36.40
26083;BME280;13848;49.018;12.078;2022-07-12T10:48:06;98402.09;;;24.83;35.25
26083;BME280;13848;49.018;12.078;2022-07-12T10:50:52;98384.41;;;24.84;33.86
26083;BME280;13848;49.018;12.078;2022-07-12T10:53:20;98395.44;;;24.84;35.44
26083;BME280;13848;49.018;12.078;2022-07-12T10:56:07;98399.19;;;25.31;34.47
26083;BME280;13848;49.018;12.078;2022-07-12T10:58:35;98398.22;;;25.21;34.02
26083;BME280;13848;49.018;12.078;2022-07-12T11:01:04;98395.31;;;25.32;31.99
26083;BME280;13848;49.018;12.078;2022-07-12T11:03:30;98393.78;;;25.39;31.94
26083;BME280;13848;49.018;12.078;2022-07-12T11:06:01;98396.47;;;25.44;31.43
26083;BME280;13848;49.018;12.078;2022-07-12T11:08:28;98390.44;;;25.42;33.19
26083;BME280;13848;49.018;12.078;2022-07-12T11:10:54;98394.50;;;25.31;32.62
26083;BME280;13848;49.018;12.078;2022-07-12T11:13:20;98388.59;;;25.19;34.31
26083;BME280;13848;49.018;12.078;2022-07-12T11:15:56;98375.78;;;25.09;32.44
26083;BME280;13848;49.018;12.078;2022-07-12T11:18:28;98393.06;;;24.96;33.47
26083;BME280;13848;49.018;12.078;2022-07-12T11:20:56;98392.94;;;25.06;34.27
26083;BME280;13848;49.018;12.078;2022-07-12T11:23:24;98394.81;;;25.11;34.66
26083;BME280;13848;49.018;12.078;2022-07-12T11:25:50;98392.81;;;25.16;35.01
26083;BME280;13848;49.018;12.078;2022-07-12T11:28:17;98382.78;;;25.20;33.56
26083;BME280;13848;49.018;12.078;2022-07-12T11:30:48;98380.16;;;25.10;35.22
26083;BME280;13848;49.018;12.078;2022-07-12T11:33:15;98378.81;;;25.27;34.23
26083;BME280;13848;49.018;12.078;2022-07-12T11:35:43;98370.22;;;25.47;33.49
26083;BME280;13848;49.018;12.078;2022-07-12T11:38:09;98371.63;;;25.44;31.97
26083;BME280;13848;49.018;12.078;2022-07-12T11:40:35;98376.38;;;25.25;31.33
26083;BME280;13848;49.018;12.078;2022-07-12T11:43:03;98374.97;;;25.09;31.10
26083;BME280;13848;49.018;12.078;2022-07-12T11:45:30;98373.03;;;25.09;32.21
26083;BME280;13848;49.018;12.078;2022-07-12T11:47:58;98374.16;;;25.08;33.30
26083;BME280;13848;49.018;12.078;2022-07-12T11:50:26;98367.34;;;25.19;33.32
26083;BME280;13848;49.018;12.078;2022-07-12T11:52:52;98372.19;;;25.09;33.33
26083;BME280;13848;49.018;12.078;2022-07-12T11:55:18;98371.50;;;24.98;34.15
26083;BME280;13848;49.018;12.078;2022-07-12T11:57:44;98363.09;;;25.08;32.79
26083;BME280;13848;49.018;12.078;2022-07-12T12:00:15;98354.31;;;25.06;32.53
26083;BME280;13848;49.018;12.078;2022-07-12T12:02:41;98371.97;;;25.24;32.02
26083;BME280;13848;49.018;12.078;2022-07-12T12:05:08;98378.31;;;25.25;33.13
26083;BME280;13848;49.018;12.078;2022-07-12T12:07:35;98375.97;;;25.32;33.35
26083;BME280;13848;49.018;12.078;2022-07-12T12:10:09;98359.97;;;25.15;34.42
26083;BME280;13848;49.018;12.078;2022-07-12T12:12:37;98379.09;;;25.44;31.83
26083;BME280;13848;49.018;12.078;2022-07-12T12:15:04;98368.38;;;25.56;31.81
26083;BME280;13848;49.018;12.078;2022-07-12T12:17:30;98367.38;;;25.66;31.17
26083;BME280;13848;49.018;12.078;2022-07-12T12:19:57;98369.25;;;25.70;32.06
26083;BME280;13848;49.018;12.078;2022-07-12T12:22:28;98362.09;;;25.69;31.75
26083;BME280;13848;49.018;12.078;2022-07-12T12:25:00;98366.19;;;25.72;32.97
26083;BME280;13848;49.018;12.078;2022-07-12T12:27:26;98359.28;;;25.56;32.19
26083;BME280;13848;49.018;12.078;2022-07-12T12:29:52;98359.69;;;25.16;33.84
26083;BME280;13848;49.018;12.078;2022-07-12T12:32:18;98362.72;;;24.96;34.19
26083;BME280;13848;49.018;12.078;2022-07-12T12:35:05;98366.94;;;24.69;33.61
26083;BME280;13848;49.018;12.078;2022-07-12T12:37:31;98370.41;;;24.37;33.89
26083;BME280;13848;49.018;12.078;2022-07-12T12:39:57;98359.53;;;24.89;32.83
26083;BME280;13848;49.018;12.078;2022-07-12T12:42:24;98360.25;;;24.76;33.47
26083;BME280;13848;49.018;12.078;2022-07-12T12:44:51;98352.06;;;24.71;32.39
26083;BME280;13848;49.018;12.078;2022-07-12T12:47:17;98361.06;;;24.57;33.12
26083;BME280;13848;49.018;12.078;2022-07-12T12:49:43;98353.03;;;24.80;32.84